Time;durP1;ratioP1;P1;durP2;ratioP2;P2;SDS_P1;SDS_P2;PMS_P1;PMS_P2;Temp;Humidity;BMP_temperature;BMP_pressure;BME280_temperature;BME280_humidity;BME280_pressure;Samples;Min_cycle;Max_cycle;Signal;HPM_P1;HPM_P2
2022/09/16 00:00:31;;;;;;;4.40;1.52;;;20.80;99.90;;;;;;5098729;27;20043;-50
2022/09/16 00:02:57;;;;;;;2.70;1.35;;;20.90;99.90;;;;;;5133803;27;20041;-50
2022/09/16 00:05:23;;;;;;;3.65;1.65;;;21.00;99.90;;;;;;5150647;27;20027;-50
2022/09/16 00:07:49;;;;;;;2.53;0.90;;;20.70;99.90;;;;;;5144130;27;20113;-50
2022/09/16 00:10:16;;;;;;;2.65;0.82;;;20.40;99.90;;;;;;5150112;27;20046;-50
2022/09/16 00:12:41;;;;;;;4.82;1.38;;;20.40;99.90;;;;;;5102725;27;20410;-50
2022/09/16 00:15:08;;;;;;;3.53;1.20;;;20.50;99.90;;;;;;5101830;27;20126;-49
2022/09/16 00:17:33;;;;;;;4.00;1.33;;;20.50;99.90;;;;;;5096229;27;20068;-51
2022/09/16 00:20:00;;;;;;;2.53;0.82;;;20.60;99.90;;;;;;5150635;27;20057;-49
2022/09/16 00:22:27;;;;;;;4.45;1.20;;;20.80;99.90;;;;;;5118561;27;20056;-50
2022/09/16 00:24:53;;;;;;;2.90;0.93;;;20.80;99.90;;;;;;5145353;27;20031;-49
2022/09/16 00:27:19;;;;;;;2.65;1.00;;;20.90;99.90;;;;;;5146818;27;20027;-50
2022/09/16 00:29:45;;;;;;;3.60;1.25;;;21.00;99.90;;;;;;5148969;27;20023;-49
2022/09/16 00:32:11;;;;;;;4.63;1.15;;;21.10;99.90;;;;;;5151504;27;20374;-49
2022/09/16 00:34:37;;;;;;;3.67;1.20;;;21.10;99.90;;;;;;5145015;27;20019;-50
2022/09/16 00:37:03;;;;;;;4.22;1.55;;;21.10;99.90;;;;;;5148483;27;20113;-49
2022/09/16 00:39:29;;;;;;;3.53;1.10;;;21.10;99.90;;;;;;5146783;27;20033;-50
2022/09/16 00:41:55;;;;;;;8.88;2.65;;;21.10;99.90;;;;;;5147279;27;20015;-50
2022/09/16 00:44:57;;;;;;;4.75;1.40;;;21.20;99.90;;;;;;5146747;27;20033;-50
2022/09/16 00:47:35;;;;;;;3.33;1.75;;;21.20;99.90;;;;;;5151456;27;20037;-49
2022/09/16 00:50:21;;;;;;;3.08;1.55;;;21.10;99.90;;;;;;5148556;27;20027;-50
2022/09/16 00:52:48;;;;;;;3.80;1.60;;;21.10;99.90;;;;;;5144878;27;20496;-50
2022/09/16 00:55:20;;;;;;;3.92;1.25;;;21.20;99.90;;;;;;5148503;27;20032;-50
2022/09/16 00:57:47;;;;;;;3.58;1.10;;;21.00;99.90;;;;;;5147915;27;20462;-50
2022/09/16 01:00:13;;;;;;;7.90;1.60;;;20.80;99.90;;;;;;5149131;27;20030;-50
2022/09/16 01:02:42;;;;;;;6.88;1.67;;;20.90;99.90;;;;;;5101116;27;20494;-50
2022/09/16 01:05:14;;;;;;;4.47;1.50;;;21.00;99.90;;;;;;5148363;27;20367;-51
2022/09/16 01:07:47;;;;;;;6.45;1.50;;;21.10;99.90;;;;;;5141223;27;20031;-50
2022/09/16 01:10:19;;;;;;;2.63;1.40;;;21.20;99.90;;;;;;5142275;27;20058;-50
2022/09/16 01:13:06;;;;;;;2.92;1.30;;;21.30;99.90;;;;;;5143833;27;20051;-49
2022/09/16 01:15:42;;;;;;;4.63;1.45;;;21.30;99.90;;;;;;5098704;27;20050;-50
2022/09/16 01:18:20;;;;;;;7.07;1.65;;;21.20;99.90;;;;;;5139208;27;20441;-50
2022/09/16 01:21:23;;;;;;;4.22;1.63;;;21.30;99.90;;;;;;5147006;27;20052;-50
2022/09/16 01:24:04;;;;;;;3.72;1.60;;;21.00;99.90;;;;;;5149375;27;20374;-50
2022/09/16 01:26:58;;;;;;;3.80;1.20;;;20.70;99.90;;;;;;5147364;27;20472;-50
2022/09/16 01:29:45;;;;;;;3.88;1.45;;;20.60;99.90;;;;;;5147446;27;20019;-50
2022/09/16 01:32:14;;;;;;;3.92;1.50;;;20.50;99.90;;;;;;5145635;27;20359;-52
2022/09/16 01:34:46;;;;;;;3.78;1.50;;;20.50;99.90;;;;;;5108202;28;20035;-50
2022/09/16 01:37:24;;;;;;;4.78;1.35;;;20.50;99.90;;;;;;5077959;28;20032;-49
2022/09/16 01:40:05;;;;;;;5.03;1.90;;;20.40;99.90;;;;;;5111041;28;20066;-50
2022/09/16 01:42:45;;;;;;;3.47;1.50;;;20.60;99.90;;;;;;5104898;28;20027;-49
2022/09/16 01:45:16;;;;;;;4.82;1.27;;;20.80;99.90;;;;;;5108540;28;20037;-49
2022/09/16 01:47:57;;;;;;;4.85;1.60;;;20.60;99.90;;;;;;5104600;28;20065;-50
2022/09/16 01:50:40;;;;;;;2.95;1.52;;;20.70;99.90;;;;;;5109558;28;20092;-49
2022/09/16 01:53:20;;;;;;;4.25;1.50;;;20.50;99.90;;;;;;5107878;28;20031;-49
2022/09/16 01:56:21;;;;;;;5.18;1.50;;;20.60;99.90;;;;;;5064908;28;20242;-50
2022/09/16 01:59:06;;;;;;;4.15;1.73;;;20.80;99.90;;;;;;5030064;28;20091;-49
2022/09/16 02:01:43;;;;;;;7.63;1.40;;;20.70;99.90;;;;;;5029967;28;20087;-51
2022/09/16 02:04:18;;;;;;;4.70;1.75;;;20.80;99.90;;;;;;5030883;28;20022;-50
2022/09/16 02:06:46;;;;;;;5.75;1.95;;;20.90;99.90;;;;;;5067568;28;20055;-50
2022/09/16 02:09:18;;;;;;;6.22;1.63;;;20.90;99.90;;;;;;5071098;28;20399;-50
2022/09/16 02:11:47;;;;;;;4.85;1.50;;;20.70;99.90;;;;;;5069980;28;20028;-50
2022/09/16 02:14:40;;;;;;;4.05;1.63;;;20.50;99.90;;;;;;5037348;28;20556;-50
2022/09/16 02:17:13;;;;;;;3.97;1.20;;;20.20;99.90;;;;;;5065177;28;20044;-50
2022/09/16 02:20:05;;;;;;;4.97;1.73;;;20.20;99.90;;;;;;5065705;28;20032;-51
2022/09/16 02:22:37;;;;;;;4.55;1.60;;;20.30;99.90;;;;;;5029651;28;20528;-49
2022/09/16 02:25:04;;;;;;;;;;;20.20;99.90;;;;;;5030845;28;20037;-50
2022/09/16 02:27:31;;;;;;;7.15;1.45;;;20.30;99.90;;;;;;5029204;28;19917;-49
2022/09/16 02:30:10;;;;;;;4.93;1.50;;;20.40;99.90;;;;;;5029518;28;20029;-50
2022/09/16 02:32:42;;;;;;;4.80;1.63;;;20.60;99.90;;;;;;5029582;28;20071;-50
2022/09/16 02:35:11;;;;;;;3.47;1.60;;;20.70;99.90;;;;;;5091539;28;20031;-50
2022/09/16 02:37:46;;;;;;;4.35;1.70;;;20.80;99.90;;;;;;5099580;28;20019;-50
2022/09/16 02:40:17;;;;;;;3.17;1.92;;;20.80;99.90;;;;;;5107124;28;20054;-50
2022/09/16 02:42:43;;;;;;;4.50;1.97;;;20.90;99.90;;;;;;5101755;28;20093;-50
2022/09/16 02:45:09;;;;;;;6.95;2.05;;;20.80;99.90;;;;;;5103277;28;20321;-49
2022/09/16 02:47:50;;;;;;;4.00;2.25;;;20.50;99.90;;;;;;5089371;28;20040;-50
2022/09/16 02:50:26;;;;;;;6.15;2.20;;;20.30;99.90;;;;;;5097781;28;20020;-50
2022/09/16 02:53:00;;;;;;;6.20;3.15;;;20.20;99.90;;;;;;5097607;28;20031;-50
2022/09/16 02:55:32;;;;;;;4.38;1.98;;;20.10;99.90;;;;;;5107477;28;20125;-50
2022/09/16 02:57:58;;;;;;;;;;;20.20;99.90;;;;;;5098085;28;20015;-50
2022/09/16 03:00:24;;;;;;;7.47;1.85;;;20.20;99.90;;;;;;5143089;27;19903;-51
2022/09/16 03:02:52;;;;;;;5.22;2.00;;;20.30;99.90;;;;;;5109751;27;20045;-50
2022/09/16 03:05:18;;;;;;;4.55;1.60;;;20.40;99.90;;;;;;5152548;27;20068;-50
2022/09/16 03:07:43;;;;;;;6.30;2.28;;;20.30;99.90;;;;;;5116604;27;20039;-50
2022/09/16 03:10:13;;;;;;;7.00;2.17;;;20.20;99.90;;;;;;5071408;27;20031;-50
2022/09/16 03:12:48;;;;;;;7.30;2.30;;;20.10;99.90;;;;;;5153071;27;20050;-51
2022/09/16 03:15:47;;;;;;;3.28;1.88;;;20.10;99.90;;;;;;5148349;27;20023;-50
2022/09/16 03:18:50;;;;;;;4.65;1.70;;;20.10;99.90;;;;;;5088962;28;20028;-49
2022/09/16 03:21:20;;;;;;;6.53;2.33;;;20.00;99.90;;;;;;5084061;28;20021;-50
2022/09/16 03:24:28;;;;;;;6.03;1.75;;;20.20;99.90;;;;;;5089761;28;20379;-50
2022/09/16 03:27:17;;;;;;;5.05;2.30;;;20.20;99.90;;;;;;5047160;28;20179;-50
2022/09/16 03:29:56;;;;;;;5.45;2.05;;;20.20;99.90;;;;;;5045663;28;20636;-49
2022/09/16 03:32:26;;;;;;;4.65;1.92;;;20.30;99.90;;;;;;5037106;28;20044;-49
2022/09/16 03:35:09;;;;;;;3.60;2.20;;;20.50;99.90;;;;;;5049847;28;20342;-49
2022/09/16 03:37:37;;;;;;;4.13;2.00;;;20.40;99.90;;;;;;5054178;28;20388;-50
2022/09/16 03:40:14;;;;;;;6.95;2.15;;;20.40;99.90;;;;;;5053755;28;20029;-49
2022/09/16 03:42:42;;;;;;;5.72;2.10;;;20.20;99.90;;;;;;5001623;28;20048;-50
2022/09/16 03:45:13;;;;;;;6.97;2.15;;;20.20;99.90;;;;;;5048139;28;20503;-50
2022/09/16 03:47:39;;;;;;;6.32;2.20;;;20.30;99.90;;;;;;5053232;28;20044;-50
2022/09/16 03:50:05;;;;;;;5.43;2.70;;;20.30;99.90;;;;;;5037376;28;20387;-50
2022/09/16 03:52:31;;;;;;;7.20;2.15;;;20.50;99.90;;;;;;5093041;28;20357;-50
2022/09/16 03:54:57;;;;;;;5.18;2.22;;;20.50;99.90;;;;;;5088948;28;20035;-50
2022/09/16 03:57:23;;;;;;;6.65;2.25;;;20.70;99.90;;;;;;5089275;28;20028;-50
2022/09/16 03:59:48;;;;;;;3.38;2.20;;;20.70;99.90;;;;;;5059436;28;20066;-49
2022/09/16 04:02:14;;;;;;;8.50;2.00;;;20.80;99.90;;;;;;5108834;27;20038;-49
2022/09/16 04:04:40;;;;;;;4.43;1.70;;;20.80;99.90;;;;;;5147550;27;20182;-49
2022/09/16 04:07:06;;;;;;;4.38;1.80;;;20.70;99.90;;;;;;5096509;27;20043;-49
2022/09/16 04:09:32;;;;;;;5.25;2.30;;;20.70;99.90;;;;;;5155043;27;20031;-50
2022/09/16 04:11:58;;;;;;;3.28;1.90;;;20.80;99.90;;;;;;5149967;27;20046;-50
2022/09/16 04:14:24;;;;;;;4.35;2.08;;;20.90;99.90;;;;;;5142919;27;20050;-49
2022/09/16 04:16:49;;;;;;;9.18;2.35;;;20.90;99.90;;;;;;5158150;27;20072;-50
2022/09/16 04:19:15;;;;;;;6.57;2.20;;;20.90;99.90;;;;;;5157838;27;20014;-49
2022/09/16 04:21:41;;;;;;;10.50;2.88;;;21.00;99.90;;;;;;5158006;27;20022;-49
2022/09/16 04:24:07;;;;;;;8.07;2.83;;;20.90;99.90;;;;;;5157655;27;20389;-49
2022/09/16 04:26:33;;;;;;;9.38;2.75;;;21.00;99.90;;;;;;5121348;27;20122;-50
2022/09/16 04:28:59;;;;;;;9.43;3.20;;;21.00;99.90;;;;;;5157813;27;20079;-50
2022/09/16 04:31:25;;;;;;;9.32;2.40;;;21.00;99.90;;;;;;5157743;27;20018;-50
2022/09/16 04:33:50;;;;;;;7.07;2.40;;;20.70;99.90;;;;;;5157523;27;20034;-49
2022/09/16 04:36:18;;;;;;;10.15;3.28;;;20.60;99.90;;;;;;5087319;27;20027;-51
2022/09/16 04:38:46;;;;;;;6.57;2.58;;;20.30;99.90;;;;;;5121221;27;20105;-49
2022/09/16 04:41:17;;;;;;;6.60;2.75;;;20.10;99.90;;;;;;5142690;27;20027;-50
2022/09/16 04:43:43;;;;;;;6.45;2.90;;;20.10;99.90;;;;;;5136573;27;20102;-49
2022/09/16 04:46:10;;;;;;;5.03;3.03;;;20.10;99.90;;;;;;5136538;27;20031;-50
2022/09/16 04:48:36;;;;;;;6.65;2.85;;;20.20;99.90;;;;;;5136390;27;20156;-50
2022/09/16 04:51:04;;;;;;;6.75;2.67;;;20.00;99.90;;;;;;5031593;28;20055;-49
2022/09/16 04:53:29;;;;;;;5.38;3.08;;;20.10;99.90;;;;;;5073113;28;20404;-49
2022/09/16 04:56:03;;;;;;;6.82;2.40;;;19.80;99.90;;;;;;5073125;28;20037;-49
2022/09/16 04:58:29;;;;;;;5.90;2.67;;;19.60;99.90;;;;;;5072968;28;20415;-50
2022/09/16 05:00:55;;;;;;;5.70;2.90;;;19.70;99.90;;;;;;5073016;28;20041;-49
2022/09/16 05:03:20;;;;;;;4.75;2.42;;;19.90;99.90;;;;;;5056510;28;20563;-49
2022/09/16 05:05:47;;;;;;;3.63;2.22;;;;;;;;;;5073072;28;20111;-50
2022/09/16 05:08:12;;;;;;;5.75;2.50;;;20.20;99.90;;;;;;5059037;28;20036;-49
2022/09/16 05:10:38;;;;;;;3.80;2.65;;;20.20;99.90;;;;;;5093044;28;20040;-49
2022/09/16 05:13:04;;;;;;;7.88;2.38;;;20.30;99.90;;;;;;5092772;28;20101;-49
2022/09/16 05:15:29;;;;;;;3.97;2.30;;;20.40;99.90;;;;;;5059296;28;20032;-50
2022/09/16 05:17:56;;;;;;;4.47;2.05;;;20.40;99.90;;;;;;5046410;28;20038;-51
2022/09/16 05:20:22;;;;;;;6.55;2.95;;;20.40;99.90;;;;;;4998989;28;20542;-49
2022/09/16 05:22:50;;;;;;;5.70;2.95;;;20.50;99.90;;;;;;5048789;28;20032;-50
2022/09/16 05:25:16;;;;;;;7.57;2.75;;;20.40;99.90;;;;;;5092669;28;20471;-49
2022/09/16 05:27:42;;;;;;;7.65;2.70;;;;;;;;;;5100372;28;20036;-49
2022/09/16 05:30:09;;;;;;;5.45;2.65;;;20.70;99.90;;;;;;5107788;28;20036;-50
2022/09/16 05:32:35;;;;;;;5.75;3.05;;;20.90;99.90;;;;;;5056546;28;20044;-49
2022/09/16 05:35:00;;;;;;;4.82;2.30;;;20.90;99.90;;;;;;5041676;28;20047;-50
2022/09/16 05:37:26;;;;;;;3.33;2.30;;;;;;;;;;5060633;28;20035;-50
2022/09/16 05:39:52;;;;;;;6.63;2.88;;;20.10;99.90;;;;;;5093772;28;20032;-49
2022/09/16 05:42:18;;;;;;;6.47;2.50;;;20.10;99.90;;;;;;5092655;28;20032;-49
2022/09/16 05:44:44;;;;;;;6.47;2.78;;;20.30;99.90;;;;;;5058856;28;20093;-50
2022/09/16 05:47:10;;;;;;;5.40;2.47;;;20.50;99.90;;;;;;5063261;28;20076;-49
2022/09/16 05:49:35;;;;;;;5.03;2.85;;;20.70;99.90;;;;;;5068348;28;20043;-49
2022/09/16 05:52:01;;;;;;;3.85;2.53;;;20.70;99.90;;;;;;5090079;28;20036;-49
2022/09/16 05:54:27;;;;;;;7.80;3.33;;;20.40;99.90;;;;;;5090714;27;20495;-49
2022/09/16 05:56:53;;;;;;;6.32;3.67;;;20.40;99.90;;;;;;5120148;27;20027;-49
2022/09/16 05:59:19;;;;;;;5.72;3.40;;;20.60;99.90;;;;;;5140974;27;20480;-50
2022/09/16 06:01:45;;;;;;;8.07;3.78;;;20.60;99.90;;;;;;5139463;27;20102;-49
2022/09/16 06:04:12;;;;;;;8.57;3.50;;;20.80;99.90;;;;;;5140092;27;20076;-50
2022/09/16 06:06:45;;;;;;;7.10;3.65;;;20.70;99.90;;;;;;5104001;27;20451;-50
2022/09/16 06:09:17;;;;;;;6.30;3.78;;;20.70;99.90;;;;;;5103586;27;20042;-49
2022/09/16 06:11:45;;;;;;;12.20;4.32;;;20.40;99.90;;;;;;5134038;27;20077;-50
2022/09/16 06:14:12;;;;;;;7.05;4.07;;;20.30;99.90;;;;;;5135632;27;20541;-49
2022/09/16 06:16:38;;;;;;;7.95;4.45;;;20.30;99.90;;;;;;5096223;27;20109;-50
2022/09/16 06:19:09;;;;;;;9.98;4.20;;;20.60;99.90;;;;;;5153068;27;20454;-49
2022/09/16 06:21:37;;;;;;;5.70;4.35;;;20.70;99.90;;;;;;5094682;27;20047;-49
2022/09/16 06:24:07;;;;;;;7.53;4.10;;;20.80;99.90;;;;;;5133886;27;20035;-49
2022/09/16 06:26:34;;;;;;;9.05;4.63;;;20.90;99.90;;;;;;5134191;27;20041;-50
2022/09/16 06:29:00;;;;;;;11.68;4.32;;;21.00;99.90;;;;;;5133661;27;20042;-51
2022/09/16 06:31:27;;;;;;;7.55;5.10;;;21.20;99.90;;;;;;5138079;27;20027;-49
2022/09/16 06:33:54;;;;;;;9.93;5.47;;;21.30;99.90;;;;;;5132888;27;20110;-50
2022/09/16 06:36:21;;;;;;;10.02;5.10;;;21.50;99.90;;;;;;5103856;27;20381;-49
2022/09/16 06:38:48;;;;;;;8.32;4.93;;;21.60;99.90;;;;;;5139337;27;20062;-50
2022/09/16 06:41:15;;;;;;;6.70;4.35;;;21.70;99.90;;;;;;5110428;27;20066;-60
2022/09/16 06:43:42;;;;;;;4.97;3.60;;;21.80;99.90;;;;;;5133827;27;20517;-56
2022/09/16 06:46:17;;;;;;;9.15;3.40;;;21.90;99.90;;;;;;5133546;27;20116;-50
2022/09/16 06:48:45;;;;;;;5.55;3.50;;;21.90;99.90;;;;;;5109323;27;20070;-52
2022/09/16 06:51:13;;;;;;;7.85;3.03;;;22.00;99.90;;;;;;5101298;27;20035;-51
2022/09/16 06:53:40;;;;;;;5.68;2.42;;;22.10;99.90;;;;;;5148958;27;20035;-48
2022/09/16 06:56:09;;;;;;;3.75;2.30;;;22.20;99.90;;;;;;5155027;27;20102;-53
2022/09/16 06:58:36;;;;;;;6.85;4.50;;;;;;;;;;5136867;27;20038;-50
2022/09/16 07:01:06;;;;;;;7.03;3.65;;;22.50;99.90;;;;;;5140437;27;20031;-52
2022/09/16 07:03:35;;;;;;;5.85;3.85;;;22.50;99.90;;;;;;5133576;27;20027;-52
2022/09/16 07:06:01;;;;;;;5.50;2.88;;;22.60;99.90;;;;;;5133899;27;20027;-52
2022/09/16 07:08:29;;;;;;;5.57;2.63;;;;;;;;;;5071492;27;20034;-54
2022/09/16 07:10:59;;;;;;;10.27;3.58;;;22.70;99.90;;;;;;5086589;28;20039;-52
2022/09/16 07:13:26;;;;;;;7.10;2.15;;;22.70;99.90;;;;;;5133515;28;20071;-52
2022/09/16 07:15:51;;;;;;;6.22;1.92;;;22.60;99.90;;;;;;5122102;28;20432;-51
2022/09/16 07:18:18;;;;;;;4.88;2.10;;;22.60;99.90;;;;;;5136470;27;20038;-50
2022/09/16 07:20:43;;;;;;;6.82;2.72;;;22.60;99.90;;;;;;5104583;28;20074;-50
2022/09/16 07:23:09;;;;;;;7.50;2.42;;;22.40;99.90;;;;;;5134462;28;20062;-53
2022/09/16 07:25:35;;;;;;;7.35;4.40;;;22.20;99.90;;;;;;5134051;28;20471;-51
2022/09/16 07:28:02;;;;;;;5.78;2.85;;;22.20;99.90;;;;;;5113436;27;20047;-54
2022/09/16 07:30:29;;;;;;;5.95;3.15;;;22.20;99.90;;;;;;5097326;28;20035;-54
2022/09/16 07:32:55;;;;;;;7.15;3.30;;;22.10;99.90;;;;;;5134097;27;20100;-55
2022/09/16 07:35:21;;;;;;;4.88;2.72;;;21.90;99.90;;;;;;5133912;27;20035;-51
2022/09/16 07:37:47;;;;;;;6.40;2.80;;;21.90;99.90;;;;;;5081028;28;20039;-49
2022/09/16 07:40:13;;;;;;;7.32;2.83;;;21.90;99.90;;;;;;5134577;27;20030;-53
2022/09/16 07:42:39;;;;;;;5.07;2.65;;;21.80;99.90;;;;;;5132162;27;20043;-52
2022/09/16 07:45:05;;;;;;;5.95;3.17;;;21.90;99.90;;;;;;5137448;27;20534;-51
2022/09/16 07:47:31;;;;;;;5.22;3.10;;;21.70;99.90;;;;;;5108654;27;20055;-54
2022/09/16 07:49:58;;;;;;;7.22;2.88;;;21.90;99.90;;;;;;5137192;27;20027;-52
2022/09/16 07:52:30;;;;;;;4.43;2.03;;;22.10;99.90;;;;;;5137922;27;20374;-51
2022/09/16 07:54:56;;;;;;;4.55;2.47;;;22.10;99.90;;;;;;5143209;27;20125;-49
2022/09/16 07:57:22;;;;;;;5.63;2.20;;;22.20;99.90;;;;;;5097656;27;20114;-56
2022/09/16 07:59:49;;;;;;;4.78;2.30;;;22.20;99.90;;;;;;5136623;27;20471;-55
2022/09/16 08:02:15;;;;;;;4.10;2.22;;;22.40;99.90;;;;;;5136183;27;20576;-55
2022/09/16 08:04:41;;;;;;;5.53;2.58;;;22.60;99.90;;;;;;5137406;27;20031;-52
2022/09/16 08:07:07;;;;;;;4.78;2.35;;;;;;;;;;5137313;27;20091;-52
2022/09/16 08:09:34;;;;;;;3.17;2.10;;;23.20;99.90;;;;;;5114379;27;20046;-54
2022/09/16 08:12:03;;;;;;;7.18;2.60;;;23.50;99.90;;;;;;5136786;27;20475;-53
2022/09/16 08:14:28;;;;;;;6.28;2.33;;;23.60;99.90;;;;;;5136217;27;20047;-56
2022/09/16 08:16:54;;;;;;;9.75;2.80;;;23.60;99.90;;;;;;5067878;27;20035;-53
2022/09/16 08:19:21;;;;;;;4.57;3.10;;;23.50;99.90;;;;;;5136813;27;20031;-53
2022/09/16 08:21:47;;;;;;;4.45;2.90;;;23.90;99.90;;;;;;5136338;27;20038;-54
2022/09/16 08:24:13;;;;;;;7.75;3.08;;;24.50;99.90;;;;;;5104958;27;20121;-49
2022/09/16 08:26:39;;;;;;;5.15;2.85;;;24.70;99.90;;;;;;5143330;27;20047;-52
2022/09/16 08:29:06;;;;;;;5.88;2.70;;;;;;;;;;5085785;27;20039;-53
2022/09/16 08:31:31;;;;;;;11.15;3.08;;;25.10;99.90;;;;;;5116209;27;20078;-52
2022/09/16 08:33:57;;;;;;;3.97;2.60;;;25.10;99.90;;;;;;5082357;27;20055;-52
2022/09/16 08:36:24;;;;;;;5.25;2.65;;;24.90;99.90;;;;;;5140682;27;20466;-52
2022/09/16 08:38:53;;;;;;;8.65;2.60;;;24.80;99.90;;;;;;5138054;27;20037;-50
2022/09/16 08:41:43;;;;;;;4.93;2.40;;;24.80;99.90;;;;;;5146317;27;20026;-50
2022/09/16 08:44:30;;;;;;;5.38;3.67;;;24.80;99.90;;;;;;5135804;27;20402;-50
2022/09/16 08:47:05;;;;;;;5.40;3.13;;;25.00;99.90;;;;;;5136527;27;20386;-50
2022/09/16 08:49:43;;;;;;;8.43;3.10;;;24.90;99.90;;;;;;5156939;27;20118;-51
2022/09/16 08:52:30;;;;;;;5.57;2.70;;;24.80;99.90;;;;;;5121247;27;20080;-50
2022/09/16 08:55:22;;;;;;;7.22;3.70;;;24.80;99.90;;;;;;5156726;27;20447;-50
2022/09/16 08:58:11;;;;;;;4.68;3.17;;;24.50;99.90;;;;;;5157290;27;20374;-49
2022/09/16 09:00:39;;;;;;;4.85;3.00;;;24.40;99.90;;;;;;5157353;27;20394;-50
2022/09/16 09:03:16;;;;;;;7.35;3.53;;;24.40;99.90;;;;;;5121083;27;20119;-49
2022/09/16 09:05:53;;;;;;;8.65;3.90;;;24.40;99.90;;;;;;5156878;27;20037;-50
2022/09/16 09:08:28;;;;;;;5.82;2.92;;;24.70;99.90;;;;;;5156918;27;20035;-51
2022/09/16 09:11:13;;;;;;;5.10;3.17;;;24.90;99.90;;;;;;5157433;27;20178;-49
2022/09/16 09:14:03;;;;;;;8.82;3.42;;;24.50;99.90;;;;;;5156873;27;20494;-51
2022/09/16 09:17:00;;;;;;;5.18;3.08;;;24.10;99.90;;;;;;5120477;27;20046;-50
2022/09/16 09:19:55;;;;;;;7.60;2.92;;;23.70;99.90;;;;;;5151306;27;20034;-50
2022/09/16 09:22:47;;;;;;;8.15;3.78;;;23.40;99.90;;;;;;5156697;27;20046;-49
2022/09/16 09:25:19;;;;;;;6.05;3.25;;;23.10;99.90;;;;;;5117375;27;20473;-50
2022/09/16 09:28:20;;;;;;;4.38;2.67;;;23.20;99.90;;;;;;5156817;27;20038;-49
2022/09/16 09:31:01;;;;;;;3.00;2.05;;;23.50;99.90;;;;;;5052295;28;20040;-50
2022/09/16 09:33:42;;;;;;;8.10;3.08;;;23.80;99.90;;;;;;5052690;28;20033;-50
2022/09/16 09:36:32;;;;;;;6.07;1.85;;;23.80;99.90;;;;;;5052372;28;20044;-49
2022/09/16 09:39:28;;;;;;;5.15;2.38;;;23.50;99.90;;;;;;5053177;28;20116;-50
2022/09/16 09:42:02;;;;;;;4.53;2.15;;;23.60;99.90;;;;;;5052419;28;20079;-51
2022/09/16 09:45:11;;;;;;;6.43;2.35;;;24.00;99.90;;;;;;5052201;28;20064;-50
2022/09/16 09:48:00;;;;;;;4.68;1.88;;;24.10;99.90;;;;;;5052024;28;20114;-51
2022/09/16 09:50:43;;;;;;;5.40;1.75;;;24.20;99.90;;;;;;5051409;28;20103;-50
2022/09/16 09:53:35;;;;;;;4.45;1.88;;;24.20;99.90;;;;;;5052086;28;20404;-50
2022/09/16 09:56:32;;;;;;;2.80;1.38;;;24.60;99.90;;;;;;5035523;28;20041;-48
2022/09/16 09:59:31;;;;;;;3.55;1.40;;;24.40;99.90;;;;;;5052208;28;20078;-50
2022/09/16 10:02:00;;;;;;;4.07;2.13;;;24.50;99.90;;;;;;5052342;28;20106;-52
2022/09/16 10:04:36;;;;;;;3.35;1.70;;;24.60;99.90;;;;;;5051705;28;20103;-50
2022/09/16 10:07:04;;;;;;;3.90;1.85;;;24.70;99.90;;;;;;5073801;27;20405;-51
2022/09/16 10:09:31;;;;;;;3.25;1.30;;;24.40;99.90;;;;;;5102805;27;20426;-50
2022/09/16 10:11:57;;;;;;;2.15;1.20;;;24.50;99.90;;;;;;5156114;27;20125;-49
2022/09/16 10:14:36;;;;;;;2.65;1.40;;;24.50;99.90;;;;;;5119406;27;20138;-51
2022/09/16 10:17:16;;;;;;;1.77;1.15;;;24.80;99.90;;;;;;5119630;27;20077;-50
2022/09/16 10:19:58;;;;;;;3.35;1.40;;;25.00;99.90;;;;;;5155493;27;20034;-50
2022/09/16 10:22:25;;;;;;;1.73;1.50;;;24.70;99.90;;;;;;5116599;27;20402;-49
2022/09/16 10:25:00;;;;;;;4.63;1.30;;;24.60;99.90;;;;;;5155569;27;20118;-50
2022/09/16 10:27:34;;;;;;;4.53;1.40;;;24.90;99.90;;;;;;5155337;27;20045;-49
2022/09/16 10:30:18;;;;;;;2.60;1.50;;;24.80;99.90;;;;;;5155338;27;20027;-50
2022/09/16 10:33:05;;;;;;;2.58;1.25;;;24.80;99.90;;;;;;5155477;27;20034;-51
2022/09/16 10:35:33;;;;;;;4.05;1.30;;;24.70;99.90;;;;;;5155066;27;20463;-50
2022/09/16 10:38:19;;;;;;;2.70;1.20;;;24.50;99.90;;;;;;5155208;27;20095;-50
2022/09/16 10:40:56;;;;;;;3.03;1.38;;;24.30;99.90;;;;;;5155258;27;20363;-50
2022/09/16 10:43:24;;;;;;;3.88;1.35;;;24.20;99.90;;;;;;5155237;27;20075;-49
2022/09/16 10:45:52;;;;;;;3.25;1.50;;;24.20;99.90;;;;;;5155670;27;20033;-49
2022/09/16 10:48:26;;;;;;;3.03;1.95;;;24.10;99.90;;;;;;5155305;27;20038;-51
2022/09/16 10:50:54;;;;;;;7.25;2.03;;;24.10;99.90;;;;;;5102011;27;20042;-51
2022/09/16 10:53:35;;;;;;;5.13;1.30;;;24.00;99.90;;;;;;5155494;27;20101;-50
2022/09/16 10:56:05;;;;;;;9.18;1.63;;;23.90;99.90;;;;;;5119054;27;20134;-51
2022/09/16 10:58:31;;;;;;;13.85;2.50;;;23.80;99.90;;;;;;5155169;27;20026;-50
2022/09/16 11:01:06;;;;;;;6.45;2.15;;;23.70;99.90;;;;;;5101654;27;20386;-50
2022/09/16 11:03:56;;;;;;;3.85;1.83;;;23.70;99.90;;;;;;5118727;27;20085;-50
2022/09/16 11:06:28;;;;;;;4.03;2.20;;;23.80;99.90;;;;;;5154947;27;20031;-50
2022/09/16 11:08:54;;;;;;;;;;;23.80;99.90;;;;;;5155582;27;20053;-51
2022/09/16 11:11:36;;;;;;;5.40;2.03;;;23.80;99.90;;;;;;5118689;27;20342;-48
2022/09/16 11:14:30;;;;;;;3.55;1.88;;;23.80;99.90;;;;;;5154823;27;20047;-50
2022/09/16 11:17:17;;;;;;;3.75;1.77;;;23.50;99.90;;;;;;5155046;27;20103;-49
2022/09/16 11:20:09;;;;;;;3.17;1.70;;;23.60;99.90;;;;;;5138872;27;20362;-50
2022/09/16 11:22:53;;;;;;;3.15;1.73;;;23.50;99.90;;;;;;5158880;27;20099;-49
2022/09/16 11:25:52;;;;;;;3.53;1.85;;;23.50;99.90;;;;;;5158989;27;20030;-50
2022/09/16 11:28:41;;;;;;;5.05;1.92;;;23.40;99.90;;;;;;5159081;27;20053;-50
2022/09/16 11:31:49;;;;;;;3.53;1.70;;;23.50;99.90;;;;;;5159142;27;20091;-51
2022/09/16 11:34:17;;;;;;;4.05;2.65;;;23.60;99.90;;;;;;5054728;28;20049;-49
2022/09/16 11:36:50;;;;;;;4.53;2.17;;;23.10;99.90;;;;;;5054618;28;20037;-51
2022/09/16 11:39:40;;;;;;;6.15;3.33;;;22.80;99.90;;;;;;5054946;28;20080;-49
2022/09/16 11:42:18;;;;;;;5.70;3.33;;;22.80;99.90;;;;;;5054718;28;20114;-49
2022/09/16 11:44:50;;;;;;;6.00;4.13;;;23.20;99.90;;;;;;5054566;28;20489;-50
2022/09/16 11:47:35;;;;;;;7.35;3.55;;;23.40;99.90;;;;;;5054483;28;20041;-49
2022/09/16 11:50:18;;;;;;;5.82;3.25;;;23.60;99.90;;;;;;5054380;28;20044;-49
2022/09/16 11:53:08;;;;;;;4.72;3.08;;;23.20;99.90;;;;;;5054537;28;20079;-51
2022/09/16 11:55:58;;;;;;;4.63;2.50;;;23.00;99.90;;;;;;5054260;28;20028;-49
2022/09/16 11:58:51;;;;;;;5.70;2.70;;;23.10;99.90;;;;;;5054275;28;20064;-50
2022/09/16 12:01:25;;;;;;;5.47;2.20;;;23.00;99.90;;;;;;5054495;28;20494;-51
2022/09/16 12:04:15;;;;;;;5.00;2.42;;;22.80;99.90;;;;;;5054236;28;20033;-48
2022/09/16 12:07:10;;;;;;;3.90;2.20;;;22.60;99.90;;;;;;5053919;28;20036;-49
2022/09/16 12:09:56;;;;;;;5.68;3.05;;;22.80;99.90;;;;;;5054006;28;20211;-50
2022/09/16 12:12:32;;;;;;;6.18;3.53;;;22.90;99.90;;;;;;5153262;27;20046;-50
2022/09/16 12:15:12;;;;;;;5.95;3.20;;;22.70;99.90;;;;;;5122110;27;20073;-50
2022/09/16 12:17:41;;;;;;;4.57;2.60;;;22.80;99.90;;;;;;5157822;27;20451;-50
2022/09/16 12:20:17;;;;;;;5.60;3.53;;;23.10;99.90;;;;;;5157907;27;20031;-49
2022/09/16 12:22:48;;;;;;;5.07;3.33;;;22.90;99.90;;;;;;5121961;27;20035;-51
2022/09/16 12:25:40;;;;;;;;;;;22.90;99.90;;;;;;5158399;27;20539;-49
2022/09/16 12:28:30;;;;;;;4.40;3.13;;;22.70;99.90;;;;;;5153130;27;19915;-51
2022/09/16 12:31:25;;;;;;;4.82;3.55;;;22.30;99.90;;;;;;5157859;27;20026;-49
2022/09/16 12:34:00;;;;;;;5.10;3.30;;;22.50;99.90;;;;;;5158213;27;20428;-49
2022/09/16 12:36:33;;;;;;;5.38;3.10;;;22.60;99.90;;;;;;5150809;27;20475;-50
2022/09/16 12:39:00;;;;;;;4.68;3.00;;;22.70;99.90;;;;;;5136839;27;20440;-51
2022/09/16 12:41:56;;;;;;;5.60;2.60;;;23.00;99.90;;;;;;5136983;27;20027;-50
2022/09/16 12:44:46;;;;;;;4.97;2.88;;;23.20;99.90;;;;;;5101158;27;20051;-50
2022/09/16 12:47:44;;;;;;;4.38;2.70;;;23.50;99.90;;;;;;5136545;27;20538;-50
2022/09/16 12:50:31;;;;;;;8.63;3.63;;;23.80;99.90;;;;;;5136761;27;20031;-49
2022/09/16 12:53:12;;;;;;;3.90;3.17;;;23.80;99.90;;;;;;5136924;27;20035;-51
2022/09/16 12:55:55;;;;;;;3.30;2.97;;;23.60;99.90;;;;;;5136557;27;20050;-50
2022/09/16 12:58:49;;;;;;;7.28;3.00;;;23.50;99.90;;;;;;5136861;27;20030;-50
2022/09/16 13:01:23;;;;;;;9.18;4.57;;;23.50;99.90;;;;;;5136251;27;20031;-49
2022/09/16 13:03:56;;;;;;;6.03;3.78;;;23.50;99.90;;;;;;5136180;27;21315;-50
2022/09/16 13:06:24;;;;;;;8.43;6.00;;;23.70;99.90;;;;;;5136080;27;20031;-52
2022/09/16 13:08:51;;;;;;;5.70;4.63;;;23.60;99.90;;;;;;5136177;27;20043;-50
2022/09/16 13:11:21;;;;;;;5.22;3.80;;;23.30;99.90;;;;;;5117071;27;20035;-49
2022/09/16 13:13:55;;;;;;;8.40;4.97;;;22.90;99.90;;;;;;5099564;27;20082;-51
2022/09/16 13:16:27;;;;;;;12.93;9.85;;;22.70;99.90;;;;;;5135973;27;20031;-50
2022/09/16 13:19:25;;;;;;;10.43;7.95;;;22.50;99.90;;;;;;5135977;27;20030;-52
2022/09/16 13:22:01;;;;;;;5.95;3.30;;;22.70;99.90;;;;;;5135751;27;20049;-50
2022/09/16 13:24:39;;;;;;;3.72;3.00;;;22.50;99.90;;;;;;5116822;27;20123;-50